Terminal Aerodrome Forecast
Issued by NWS Cleveland, OH

Home | Current Version | Previous Version | Graphics & Text | Print | Product List | Glossary On
Versions: 1 2 3 4 5 6 7 8 9 10 11 12 13 14 15 16 17
000
FTUS41 KCLE 221134
TAFYNG
TAF
KYNG 221134Z 2212/2312 15005KT P6SM SCT060 BKN200
     FM221500 20008KT P6SM SCT060 BKN150
     FM221900 22012KT P6SM VCSH SCT050 BKN100
     FM222100 21012KT P6SM SCT080 BKN150
     FM230700 19010KT P6SM BKN030
     FM231000 20008KT P6SM -SHRA BKN012=

USA.gov is the U.S. government's official web portal to all federal, state and local government web resources and services.